Latest Weather Observations for White Cliffs AWS

IDN60801

Issued at 11:35 pm EDT Monday 20 October 2014 (issued every 30 minutes, with the page automatically refreshed every 10 minutes)

About weather observations | Map of weather stations | Latest weather observations for NSW | Other Formats
Station Details ID: 046129 Name: WHITE CLIFFS AWS Lat: -30.85 Lon: 143.07 Height: 158.0 m
Data from the previous 72 hours. | See also: Recent months at White Cliffs AWS
Date/Time
EDT
Temp
°C
App
Temp
°C
Dew
Point
Rel
Hum
%
Delta-T
°C
Wind Press
QNH
hPa
Press
MSL
hPa
Rain
since 9 am
mm
Dir
 
Spd
km/h
Gust
km/h
Spd
kts
Gust
kts
20/11:30pm 25.6 22.0 0.3 19 11.8 E 9 9 5 5 1021.0 1020.5 0.0
20/11:00pm 26.2 21.7 0.0 18 12.2 E 13 15 7 8 1020.9 1020.4 0.0
20/10:30pm 27.4 23.6 -0.6 16 13.1 E 9 11 5 6 1020.8 1020.3 0.0
20/10:00pm 30.5 25.5 -1.0 13 14.9 SE 15 17 8 9 1020.5 1020.0 0.0
20/09:30pm 30.9 25.4 -1.8 12 15.3 SE 17 19 9 10 1020.5 1020.0 0.0
20/09:00pm 30.8 25.9 -0.8 13 15.0 SE 15 17 8 9 1020.2 1019.7 0.0
20/08:30pm 30.4 25.6 -0.1 14 14.7 SSE 15 17 8 9 1019.9 1019.4 0.0
20/08:00pm 31.1 26.6 -0.5 13 15.1 SSE 13 13 7 7 1019.5 1019.0 0.0
20/07:30pm 32.7 28.2 -0.4 12 16.1 SSE 13 15 7 8 1019.2 1018.7 0.0
20/07:00pm 33.8 29.1 -2.0 10 17.1 SE 13 17 7 9 1018.9 1018.3 0.0
20/06:30pm 34.7 30.4 -1.4 10 17.5 ESE 11 19 6 10 1018.8 1018.2 0.0
20/06:00pm 35.7 30.8 -0.6 10 17.9 SE 15 26 8 14 1018.7 1018.1 0.0
20/05:30pm 35.7 31.5 -0.6 10 18.0 ESE 11 19 6 10 1018.9 1018.3 0.0
20/05:00pm 35.9 31.2 -1.9 9 18.3 ENE 13 19 7 10 1018.9 1018.3 0.0
20/04:30pm 35.9 31.6 -1.9 9 18.3 E 11 19 6 10 1018.9 1018.3 0.0
20/04:00pm 35.7 31.5 -0.6 10 17.9 E 11 17 6 9 1019.2 1018.7 0.0
20/03:30pm 35.8 32.4 -0.5 10 18.0 W 7 13 4 7 1019.6 1019.1 0.0
20/03:00pm 36.5 32.4 0.0 10 18.3 S 11 26 6 14 1019.9 1019.4 0.0
20/02:30pm 35.4 32.2 -0.8 10 17.8 WNW 6 17 3 9 1020.5 1020.0 0.0
20/02:00pm 35.2 31.4 -1.0 10 17.7 WNW 9 15 5 8 1020.9 1020.4 0.0
20/01:30pm 34.9 30.7 -1.2 10 17.6 SSE 11 17 6 9 1021.3 1020.8 0.0
20/01:00pm 34.3 30.8 -1.7 10 17.3 ESE 7 15 4 8 1021.8 1021.3 0.0
20/12:30pm 33.8 30.4 -0.7 11 16.8 E 7 17 4 9 1022.0 1021.5 0.0
20/12:00pm 33.5 29.3 -1.0 11 16.6 N 11 20 6 11 1022.5 1022.0 0.0
20/11:30am 33.5 28.7 0.2 12 16.5 NNE 15 20 8 11 1022.9 1022.4 0.0
20/11:00am 32.9 27.6 1.9 14 15.6 N 19 22 10 12 1023.0 1022.5 0.0
20/10:30am 32.2 28.9 2.3 15 15.2 NE 9 15 5 8 1023.2 1022.6 0.0
20/10:00am 30.6 27.7 2.8 17 14.0 NE 7 13 4 7 1023.3 1022.7 0.0
20/09:30am 28.7 26.0 2.8 19 13.0 ENE 6 9 3 5 1023.0 1022.5 0.0
20/09:00am 26.8 23.9 2.7 21 11.8 E 7 11 4 6 1022.7 1022.2 0.0
20/08:30am 25.2 22.3 2.6 23 11.0 E 7 11 4 6 1022.5 1022.0 0.0
20/08:00am 23.2 19.9 2.7 26 9.8 E 9 11 5 6 1022.1 1021.6 0.0
20/07:30am 22.2 18.3 1.3 25 9.7 E 11 11 6 6 1021.7 1021.2 0.0
20/07:00am 20.7 17.1 0.5 26 9.1 E 9 11 5 6 1021.6 1021.1 0.0
20/06:30am 22.6 19.0 0.4 23 10.2 ENE 9 11 5 6 1021.4 1020.9 0.0
20/06:00am 21.8 18.5 -0.2 23 9.9 ENE 7 9 4 5 1020.9 1020.4 0.0
20/05:30am 21.3 17.5 -0.6 23 9.7 E 9 9 5 5 1020.7 1020.2 0.0
20/05:00am 21.0 16.9 -0.3 24 9.5 E 11 13 6 7 1020.6 1020.1 0.0
20/04:30am 21.5 17.0 -0.5 23 9.8 E 13 15 7 8 1020.4 1019.9 0.0
20/04:00am 21.5 16.6 -0.5 23 9.8 ESE 15 17 8 9 1020.6 1020.1 0.0
20/03:30am 21.4 16.5 -0.6 23 9.8 E 15 15 8 8 1020.7 1020.2 0.0
20/03:00am 21.7 17.1 -0.9 22 10.0 E 13 17 7 9 1020.9 1020.4 0.0
20/02:30am 22.6 17.7 -0.8 21 10.5 ESE 15 17 8 9 1021.0 1020.5 0.0
20/02:00am 22.2 17.3 -0.5 22 10.2 ESE 15 15 8 8 1021.1 1020.6 0.0
20/01:30am 22.2 17.3 -0.5 22 10.2 ESE 15 15 8 8 1021.3 1020.8 0.0
20/01:00am 22.7 18.1 -0.7 21 10.5 ESE 13 13 7 7 1021.6 1021.1 0.0
20/12:30am 22.4 18.2 -1.0 21 10.4 ESE 11 13 6 7 1021.7 1021.2 0.0
20/12:00am 23.6 19.1 -0.6 20 10.9 ESE 13 15 7 8 1021.7 1021.2 0.0
 
Date/Time
EDT
Temp
°C
App
Temp
°C
Dew
Point
Rel
Hum
%
Delta-T
°C
Wind Press
QNH
hPa
Press
MSL
hPa
Rain
since 9 am
mm
Dir
 
Spd
km/h
Gust
km/h
Spd
kts
Gust
kts
19/11:30pm 23.9 19.3 -1.1 19 11.3 ESE 13 15 7 8 1021.8 1021.3 0.0
19/11:00pm 24.9 20.3 -1.0 18 11.7 ESE 13 13 7 7 1021.7 1021.2 0.0
19/10:30pm 24.9 20.7 -1.0 18 11.8 ESE 11 13 6 7 1021.7 1021.2 0.0
19/10:00pm 24.7 20.8 -1.2 18 11.7 ESE 9 11 5 6 1021.6 1021.1 0.0
19/09:30pm 25.9 22.1 -1.0 17 12.3 E 9 11 5 6 1021.4 1020.9 0.0
19/09:00pm 27.8 23.6 -1.2 15 13.4 ESE 11 13 6 7 1021.0 1020.5 0.0
19/08:30pm 28.1 24.1 -1.9 14 13.8 ESE 9 11 5 6 1020.7 1020.2 0.0
19/08:00pm 29.6 25.3 -1.7 13 14.5 ESE 11 13 6 7 1020.3 1019.8 0.0
19/07:30pm 31.4 27.9 -2.6 11 15.8 SE 6 13 3 7 1020.2 1019.7 0.0
19/07:00pm 32.2 28.6 -2.0 11 16.1 NE 7 9 4 5 1019.8 1019.3 0.0
19/06:30pm 32.8 28.4 -2.8 10 16.7 NE 11 15 6 8 1019.4 1018.9 0.0
19/06:00pm 33.0 29.3 -2.6 10 16.7 E 7 11 4 6 1019.3 1018.8 0.0
19/05:30pm 33.2 29.2 -2.5 10 16.8 NNE 9 17 5 9 1019.3 1018.8 0.0
19/05:00pm 33.3 28.5 -2.4 10 16.8 N 13 20 7 11 1019.2 1018.7 0.0
19/04:30pm 33.1 28.3 -2.6 10 16.8 N 13 19 7 10 1019.4 1018.9 0.0
19/04:00pm 33.0 29.0 -2.6 10 16.7 NW 9 17 5 9 1019.6 1019.1 0.0
19/03:30pm 33.1 30.0 -2.6 10 16.8 SSW 4 15 2 8 1020.1 1019.6 0.0
19/03:00pm 32.6 28.5 -2.9 10 16.5 N 9 20 5 11 1020.5 1020.0 0.0
19/02:30pm 32.8 27.8 -1.5 11 16.4 NE 15 28 8 15 1020.9 1020.4 0.0
19/02:00pm 31.4 26.6 -2.6 11 15.7 NNE 13 24 7 13 1021.5 1021.0 0.0
19/01:30pm 31.0 26.8 -0.6 13 15.1 NE 11 19 6 10 1021.8 1021.3 0.0
19/01:00pm 30.6 26.0 -0.9 13 14.9 ENE 13 22 7 12 1022.3 1021.8 0.0
19/12:30pm 30.0 25.0 -1.4 13 14.7 NNE 15 28 8 15 1022.7 1022.2 0.0
19/12:00pm 30.0 23.8 -0.4 14 14.5 N 22 28 12 15 1023.0 1022.5 0.0
19/11:30am 30.0 24.1 1.5 16 14.1 NE 22 32 12 17 1023.6 1023.0 0.0
19/11:00am 28.6 21.9 1.2 17 13.3 NE 26 35 14 19 1023.8 1023.2 0.0
19/10:30am 28.0 20.5 1.5 18 12.9 NNE 30 37 16 20 1023.8 1023.2 0.0
19/10:00am 27.3 19.9 1.7 19 12.4 NNE 30 35 16 19 1023.8 1023.2 0.0
19/09:30am 26.5 19.1 1.7 20 12.0 NNE 30 39 16 21 1023.7 1023.1 0.0
19/09:00am 25.8 19.3 2.5 22 11.3 NE 26 37 14 20 1023.7 1023.1 0.0
19/08:30am 23.8 18.9 2.0 24 10.4 E 17 22 9 12 1023.8 1023.2 0.0
19/08:00am 21.7 17.9 1.9 27 9.2 ENE 11 20 6 11 1023.9 1023.3 0.0
19/07:30am 21.1 16.6 1.9 28 9.0 NE 15 20 8 11 1023.5 1022.9 0.0
19/07:00am 17.9 13.8 -0.4 29 7.9 ENE 11 17 6 9 1023.0 1022.5 0.0
19/06:30am 16.6 12.3 -2.0 28 7.7 ENE 11 17 6 9 1022.5 1022.0 0.0
19/06:00am 16.8 12.0 -2.8 26 8.0 E 13 15 7 8 1022.2 1021.7 0.0
19/05:30am 16.2 11.3 -3.3 26 7.8 ESE 13 15 7 8 1021.8 1021.3 0.0
19/05:00am 16.5 11.2 -3.6 25 8.0 E 15 17 8 9 1021.8 1021.3 0.0
19/04:30am 17.6 12.7 -3.7 23 8.6 ESE 13 15 7 8 1021.9 1021.4 0.0
19/04:00am 18.3 13.0 -3.8 22 8.9 ESE 15 17 8 9 1021.7 1021.2 0.0
19/03:30am 18.5 13.1 -4.2 21 9.2 ESE 15 15 8 8 1021.9 1021.4 0.0
19/03:00am 19.0 14.1 -3.8 21 9.3 ESE 13 15 7 8 1022.2 1021.7 0.0
19/02:30am 18.5 13.6 -3.6 22 9.0 ESE 13 15 7 8 1022.3 1021.8 0.0
19/02:00am 19.6 15.0 -3.9 20 9.6 ESE 11 13 6 7 1022.4 1021.9 0.0
19/01:30am 21.0 16.8 -4.2 18 10.4 E 9 11 5 6 1022.7 1022.2 0.0
19/01:00am 21.1 16.8 -4.9 17 10.6 ESE 9 9 5 5 1023.0 1022.5 0.0
19/12:30am 21.4 17.1 -4.6 17 10.7 E 9 9 5 5 1023.0 1022.5 0.0
19/12:00am 20.9 16.6 -5.0 17 10.5 E 9 9 5 5 1023.2 1022.6 0.0
 
Date/Time
EDT
Temp
°C
App
Temp
°C
Dew
Point
Rel
Hum
%
Delta-T
°C
Wind Press
QNH
hPa
Press
MSL
hPa
Rain
since 9 am
mm
Dir
 
Spd
km/h
Gust
km/h
Spd
kts
Gust
kts
18/11:30pm 22.6 18.9 -4.5 16 11.3 E 6 7 3 4 1023.5 1022.9 0.0
18/11:00pm 22.5 18.5 -5.4 15 11.4 ENE 7 9 4 5 1023.5 1022.9 0.0
18/10:30pm 22.9 19.0 -5.1 15 11.6 ENE 7 9 4 5 1023.6 1023.0 0.0
18/10:00pm 22.9 19.0 -5.1 15 11.5 ENE 7 9 4 5 1023.5 1022.9 0.0
18/09:30pm 23.2 19.0 -4.0 16 11.5 ENE 9 11 5 6 1023.2 1022.6 0.0
18/09:00pm 23.6 19.3 -4.5 15 11.8 ENE 9 11 5 6 1022.7 1022.2 0.0
18/08:30pm 23.9 19.3 -4.3 15 11.9 ENE 11 11 6 6 1022.3 1021.8 0.0
18/08:00pm 25.0 20.8 -4.3 14 12.5 E 9 11 5 6 1022.1 1021.6 0.0
18/07:30pm 27.2 22.5 -4.6 12 13.8 E 11 15 6 8 1021.8 1021.3 0.0
18/07:00pm 28.4 24.1 -4.9 11 14.5 E 9 15 5 8 1021.5 1021.0 0.0
18/06:30pm 29.0 23.8 -5.7 10 15.0 ESE 13 20 7 11 1021.3 1020.8 0.0
18/06:00pm 29.3 23.9 -4.2 11 14.8 E 15 22 8 12 1020.9 1020.4 0.0
18/05:30pm 29.0 24.0 -4.4 11 14.8 ESE 13 28 7 15 1020.7 1020.2 0.0
18/05:00pm 29.2 24.2 -4.3 11 14.8 E 13 20 7 11 1020.8 1020.3 0.0
18/04:30pm 29.0 24.9 -3.2 12 14.5 NNE 9 19 5 10 1020.9 1020.4 0.0
18/04:00pm 29.0 25.1 -4.4 11 14.7 SSE 7 15 4 8 1021.4 1020.9 0.0
18/03:30pm 28.4 24.2 -3.7 12 14.3 NE 9 15 5 8 1021.8 1021.3 0.0
18/03:00pm 28.8 24.4 -2.3 13 14.2 N 11 19 6 10 1022.3 1021.8 0.0
18/02:30pm 28.1 22.1 -2.9 13 14.0 NNE 19 24 10 13 1022.7 1022.2 0.0
18/02:00pm 28.5 23.8 -1.6 14 13.9 ENE 13 24 7 13 1023.3 1022.7 0.0
18/01:30pm 27.4 23.1 -1.5 15 13.3 NE 11 22 6 12 1023.9 1023.3 0.0
18/01:00pm 26.8 21.8 -1.1 16 12.8 N 15 24 8 13 1024.2 1023.6 0.0
18/12:30pm 26.4 21.5 -0.6 17 12.5 NNE 15 24 8 13 1024.7 1024.2 0.0
18/12:00pm 26.1 21.2 -0.8 17 12.3 E 15 24 8 13 1025.0 1024.5 0.0
18/11:30am 25.8 20.2 -0.3 18 12.1 NE 19 26 10 14 1024.9 1024.4 0.0
18/11:00am 25.4 20.2 0.1 19 11.7 NE 17 28 9 15 1025.0 1024.5 0.0
18/10:30am 24.9 19.4 0.4 20 11.4 NE 19 22 10 12 1025.2 1024.7 0.0
18/10:00am 23.7 18.9 0.1 21 10.8 ENE 15 22 8 12 1025.4 1024.9 0.0
18/09:30am 21.9 17.2 1.0 25 9.6 E 15 20 8 11 1025.2 1024.7 0.0
18/09:00am 19.6 14.3 -0.4 26 8.8 E 17 20 9 11 1025.5 1025.0 0.0
18/08:30am 18.8 13.5 -0.6 27 8.4 E 17 22 9 12 1025.4 1024.9 0.0
18/08:00am 17.7 12.3 -1.0 28 7.9 E 17 20 9 11 1025.1 1024.6 0.0
18/07:30am 16.6 11.6 -1.0 30 7.4 ESE 15 19 8 10 1024.7 1024.2 0.0
18/07:00am 15.1 10.1 -1.5 32 6.8 ESE 15 17 8 9 1024.1 1023.5 0.0
18/06:30am 15.1 10.1 -1.5 32 6.9 ESE 15 19 8 10 1023.8 1023.2 0.0
18/06:00am 15.4 10.3 -1.6 31 7.0 ESE 15 17 8 9 1023.5 1022.9 0.0
18/05:30am 16.2 10.8 -1.4 30 7.4 ESE 17 20 9 11 1023.5 1022.9 0.0
18/05:00am 16.6 11.6 -1.0 30 7.4 SE 15 17 8 9 1023.3 1022.7 0.0
18/04:30am 16.4 11.4 -1.2 30 7.4 ESE 15 17 8 9 1023.0 1022.5 0.0
18/04:00am 16.4 11.8 -0.8 31 7.3 ESE 13 15 7 8 1022.9 1022.4 0.0
18/03:30am 16.5 11.6 -0.7 31 7.3 ESE 15 17 8 9 1022.8 1022.3 0.0
18/03:00am 16.1 11.6 -0.6 32 7.1 ESE 13 17 7 9 1022.9 1022.4 0.0
18/02:30am 17.0 12.5 -0.2 31 7.4 ESE 13 15 7 8 1023.0 1022.5 0.0
18/02:00am 16.7 12.6 -0.5 31 7.3 ESE 11 13 6 7 1023.2 1022.6 0.0
18/01:30am 16.9 12.7 -0.8 30 7.5 ESE 11 13 6 7 1023.3 1022.7 0.0
18/01:00am 16.9 13.1 -0.8 30 7.5 E 9 11 5 6 1023.5 1022.9 0.0
18/12:30am 18.1 13.9 -1.2 27 8.2 ESE 11 13 6 7 1023.6 1023.0 0.0
18/12:00am 19.3 15.5 -0.7 26 8.7 SE 9 11 5 6 1023.6 1023.0 0.0

Other Formats:

Comma delimited format used in spreadsheet applications
http://www.bom.gov.au/fwo/IDN60801/IDN60801.95699.axf

JavaScript Object Notation format (JSON) in row-major order
http://www.bom.gov.au/fwo/IDN60801/IDN60801.95699.json